Time;durP1;ratioP1;P1;durP2;ratioP2;P2;SDS_P1;SDS_P2;PMS_P1;PMS_P2;Temp;Humidity;BMP_temperature;BMP_pressure;BME280_temperature;BME280_humidity;BME280_pressure;Samples;Min_cycle;Max_cycle;Signal;HPM_P1;HPM_P2
2022/07/11 00:02:12;;;;;;;4.97;2.45;;;15.90;99.90;;;;;;4995038;28;20034;-72
2022/07/11 00:04:39;;;;;;;4.97;2.67;;;15.90;99.90;;;;;;4978374;28;20159;-72
2022/07/11 00:07:05;;;;;;;5.97;2.58;;;15.90;99.90;;;;;;5012259;28;20604;-72
2022/07/11 00:09:32;;;;;;;4.60;2.50;;;15.80;99.90;;;;;;4994817;28;20085;-72
2022/07/11 00:11:58;;;;;;;5.55;2.38;;;15.80;99.90;;;;;;4994919;28;20451;-72
2022/07/11 00:14:24;;;;;;;4.50;2.33;;;15.80;99.90;;;;;;4994779;28;20034;-72
2022/07/11 00:16:52;;;;;;;3.10;2.45;;;15.90;99.90;;;;;;4994667;28;20118;-72
2022/07/11 00:19:19;;;;;;;3.40;2.28;;;15.90;99.90;;;;;;5009729;28;20034;-72
2022/07/11 00:21:46;;;;;;;5.20;2.13;;;15.80;99.90;;;;;;4994644;28;20491;-72
2022/07/11 00:24:12;;;;;;;4.75;2.72;;;15.80;99.90;;;;;;4994839;28;20504;-72
2022/07/11 00:26:38;;;;;;;3.90;2.42;;;15.80;99.90;;;;;;5012122;28;20092;-72
2022/07/11 00:29:05;;;;;;;3.83;2.38;;;15.80;99.90;;;;;;4994306;28;20038;-72
2022/07/11 00:31:31;;;;;;;4.22;2.33;;;15.80;99.90;;;;;;5011864;28;20042;-72
2022/07/11 00:33:57;;;;;;;4.53;2.60;;;15.80;99.90;;;;;;5011976;28;20496;-72
2022/07/11 00:36:23;;;;;;;3.33;2.08;;;15.80;99.90;;;;;;4994645;28;20093;-72
2022/07/11 00:38:49;;;;;;;5.57;2.38;;;15.80;99.90;;;;;;4994297;28;20511;-73
2022/07/11 00:41:16;;;;;;;7.35;2.83;;;15.80;99.90;;;;;;4994273;28;20073;-73
2022/07/11 00:43:43;;;;;;;4.13;2.30;;;15.80;99.90;;;;;;5009323;28;20046;-72
2022/07/11 00:46:09;;;;;;;4.00;2.67;;;15.80;99.90;;;;;;4992159;28;20034;-72
2022/07/11 00:48:36;;;;;;;3.50;2.38;;;15.80;99.90;;;;;;4959125;28;20497;-72
2022/07/11 00:51:04;;;;;;;4.82;2.65;;;15.80;99.90;;;;;;4972653;28;20467;-72
2022/07/11 00:53:31;;;;;;;5.10;2.70;;;15.80;99.90;;;;;;4974922;28;20046;-72
2022/07/11 00:55:57;;;;;;;5.68;2.53;;;15.70;99.90;;;;;;4975049;28;20395;-73
2022/07/11 00:58:23;;;;;;;6.07;2.90;;;15.70;99.90;;;;;;4992301;28;20053;-73
2022/07/11 01:00:49;;;;;;;6.32;2.88;;;15.70;99.90;;;;;;4974738;28;20389;-72
2022/07/11 01:03:16;;;;;;;5.20;2.35;;;15.70;99.90;;;;;;4974305;28;20042;-72
2022/07/11 01:05:42;;;;;;;4.43;2.40;;;15.70;99.90;;;;;;4975083;28;20047;-72
2022/07/11 01:08:08;;;;;;;5.90;2.95;;;15.70;99.90;;;;;;4974620;28;20038;-72
2022/07/11 01:10:35;;;;;;;6.45;2.72;;;15.80;99.90;;;;;;4992089;28;20038;-72
2022/07/11 01:13:01;;;;;;;6.38;2.88;;;15.80;99.90;;;;;;4974674;28;20050;-72
2022/07/11 01:15:27;;;;;;;6.13;2.63;;;15.70;99.90;;;;;;4974504;28;20042;-72
2022/07/11 01:17:53;;;;;;;5.78;2.88;;;15.70;99.90;;;;;;4974592;28;20046;-72
2022/07/11 01:20:22;;;;;;;6.07;2.50;;;15.70;99.90;;;;;;4972194;28;20049;-72
2022/07/11 01:22:52;;;;;;;9.93;3.03;;;15.70;99.90;;;;;;4974562;28;20045;-72
2022/07/11 01:25:31;;;;;;;5.18;2.97;;;15.70;99.90;;;;;;4992086;28;20121;-72
2022/07/11 01:28:02;;;;;;;8.30;3.00;;;15.70;99.90;;;;;;4993312;28;20481;-72
2022/07/11 01:30:30;;;;;;;5.47;3.25;;;15.60;99.90;;;;;;4978383;28;20081;-72
2022/07/11 01:32:56;;;;;;;6.60;3.40;;;15.60;99.90;;;;;;4978257;28;20089;-72
2022/07/11 01:35:23;;;;;;;6.38;3.65;;;15.60;99.90;;;;;;4995710;28;20137;-73
2022/07/11 01:37:49;;;;;;;7.13;3.33;;;15.60;99.90;;;;;;4978124;28;20120;-72
2022/07/11 01:40:15;;;;;;;8.63;3.30;;;15.60;99.90;;;;;;4978046;28;20046;-72
2022/07/11 01:42:42;;;;;;;5.82;3.47;;;15.60;99.90;;;;;;4977700;28;20042;-72
2022/07/11 01:45:09;;;;;;;8.00;3.35;;;15.60;99.90;;;;;;4971642;28;20041;-72
2022/07/11 01:47:35;;;;;;;6.93;3.47;;;15.60;99.90;;;;;;4997526;28;20037;-72
2022/07/11 01:50:01;;;;;;;10.85;3.50;;;15.60;99.90;;;;;;4978638;28;20548;-72
2022/07/11 01:52:28;;;;;;;8.10;3.13;;;15.60;99.90;;;;;;5014736;28;20042;-72
2022/07/11 01:54:54;;;;;;;6.75;3.40;;;15.60;99.90;;;;;;5014709;28;20495;-72
2022/07/11 01:57:20;;;;;;;10.38;3.60;;;15.60;99.90;;;;;;4981022;28;20050;-72
2022/07/11 01:59:46;;;;;;;7.97;3.75;;;15.50;99.90;;;;;;5014780;28;20107;-72
2022/07/11 02:02:13;;;;;;;8.73;3.92;;;15.60;99.90;;;;;;4997014;28;20038;-72
2022/07/11 02:04:39;;;;;;;9.65;3.53;;;15.50;99.90;;;;;;4980727;28;20408;-72
2022/07/11 02:07:05;;;;;;;7.43;3.40;;;15.50;99.90;;;;;;5014517;28;20066;-72
2022/07/11 02:09:31;;;;;;;9.88;3.53;;;15.50;99.90;;;;;;4996896;28;20060;-72
2022/07/11 02:11:57;;;;;;;8.32;3.55;;;15.50;99.90;;;;;;4996711;28;20089;-72
2022/07/11 02:14:23;;;;;;;8.07;3.67;;;15.50;99.90;;;;;;5014610;28;20037;-72
2022/07/11 02:16:48;;;;;;;8.38;3.85;;;15.50;99.90;;;;;;4996808;28;20399;-73
2022/07/11 02:19:15;;;;;;;8.38;3.50;;;15.50;99.90;;;;;;4994189;28;20041;-73
2022/07/11 02:21:42;;;;;;;15.68;4.95;;;15.50;99.90;;;;;;4996675;28;20046;-73
2022/07/11 02:24:08;;;;;;;9.23;4.43;;;15.50;99.90;;;;;;4996781;28;20462;-73
2022/07/11 02:26:34;;;;;;;8.95;5.15;;;15.50;99.90;;;;;;5014122;28;20081;-73
2022/07/11 02:29:00;;;;;;;13.85;5.63;;;15.50;99.90;;;;;;4996406;28;20046;-73
2022/07/11 02:31:27;;;;;;;8.73;4.85;;;15.50;99.90;;;;;;4996609;28;20522;-73
2022/07/11 02:33:52;;;;;;;11.18;4.88;;;15.50;99.90;;;;;;4996624;28;20042;-73
2022/07/11 02:36:18;;;;;;;9.05;5.70;;;15.50;99.90;;;;;;4988686;28;20041;-73
2022/07/11 02:38:44;;;;;;;9.18;5.95;;;15.50;99.90;;;;;;5012947;28;20495;-73
2022/07/11 02:41:10;;;;;;;9.00;5.38;;;15.60;99.90;;;;;;5013874;28;20548;-72
2022/07/11 02:43:36;;;;;;;13.27;5.50;;;15.50;99.90;;;;;;4994370;28;20515;-72
2022/07/11 02:46:02;;;;;;;13.73;5.20;;;15.50;99.90;;;;;;5011751;28;20033;-72
2022/07/11 02:48:28;;;;;;;7.55;5.32;;;15.50;99.90;;;;;;5013671;28;20057;-73
2022/07/11 02:50:54;;;;;;;12.25;5.10;;;15.50;99.90;;;;;;5011292;28;20096;-73
2022/07/11 02:53:19;;;;;;;8.68;4.40;;;15.50;99.90;;;;;;4996273;28;20128;-73
2022/07/11 02:55:45;;;;;;;8.35;4.38;;;15.50;99.90;;;;;;4996295;28;20393;-73
2022/07/11 02:58:11;;;;;;;11.23;5.18;;;15.50;99.90;;;;;;4995956;28;20085;-73
2022/07/11 03:00:37;;;;;;;7.47;4.45;;;15.50;99.90;;;;;;4996041;28;20041;-72
2022/07/11 03:03:03;;;;;;;8.65;4.63;;;15.50;99.90;;;;;;5013404;28;20600;-72
2022/07/11 03:05:29;;;;;;;11.32;4.53;;;15.50;99.90;;;;;;5013431;28;20064;-73
2022/07/11 03:07:55;;;;;;;9.90;4.50;;;15.50;99.90;;;;;;4995850;28;20034;-73
2022/07/11 03:10:24;;;;;;;8.85;3.97;;;15.50;99.90;;;;;;4995795;28;20535;-73
2022/07/11 03:12:51;;;;;;;7.30;4.70;;;15.50;99.90;;;;;;4995901;28;20048;-73
2022/07/11 03:15:16;;;;;;;14.00;5.15;;;15.50;99.90;;;;;;4995976;28;20132;-72
2022/07/11 03:17:42;;;;;;;9.70;4.97;;;15.50;99.90;;;;;;5013156;28;20128;-73
2022/07/11 03:20:09;;;;;;;11.18;4.88;;;15.50;99.90;;;;;;4993138;28;20056;-72
2022/07/11 03:22:35;;;;;;;8.48;4.45;;;15.50;99.90;;;;;;4995689;28;20200;-73
2022/07/11 03:25:05;;;;;;;7.93;4.55;;;15.60;99.90;;;;;;4995619;28;20487;-73
2022/07/11 03:27:32;;;;;;;10.80;4.82;;;15.50;99.90;;;;;;4995881;28;20093;-73
2022/07/11 03:29:57;;;;;;;9.13;5.22;;;15.50;99.90;;;;;;4995413;28;20038;-73
2022/07/11 03:32:23;;;;;;;12.30;5.82;;;15.60;99.90;;;;;;5012941;28;20100;-72
2022/07/11 03:37:34;;;;;;;9.95;4.30;;;15.50;99.90;;;;;;5013042;28;20042;-72
2022/07/11 03:40:00;;;;;;;11.05;5.60;;;15.50;99.90;;;;;;4995362;28;20124;-73
2022/07/11 03:42:26;;;;;;;12.68;4.68;;;15.50;99.90;;;;;;4995317;28;20034;-74
2022/07/11 03:44:52;;;;;;;9.63;4.53;;;15.50;99.90;;;;;;5000521;28;20046;-74
2022/07/11 03:47:19;;;;;;;11.25;4.35;;;15.60;99.90;;;;;;4993235;28;20038;-73
2022/07/11 03:49:46;;;;;;;7.32;3.63;;;15.50;99.90;;;;;;4990388;28;20038;-73
2022/07/11 03:52:12;;;;;;;7.35;3.45;;;15.50;99.90;;;;;;4975785;28;20196;-74
2022/07/11 03:54:38;;;;;;;8.05;2.97;;;15.50;99.90;;;;;;4975279;28;20047;-74
2022/07/11 03:57:05;;;;;;;5.65;2.97;;;15.50;99.90;;;;;;4959469;28;20042;-73
2022/07/11 03:59:31;;;;;;;6.53;3.35;;;15.50;99.90;;;;;;4975329;28;20568;-74
2022/07/11 04:01:57;;;;;;;6.85;3.22;;;15.50;99.90;;;;;;4992872;28;20168;-73
2022/07/11 04:04:23;;;;;;;5.50;2.40;;;15.40;99.90;;;;;;4974973;28;20062;-73
2022/07/11 04:06:48;;;;;;;4.82;2.30;;;15.40;99.90;;;;;;4975421;28;20057;-74
2022/07/11 04:09:14;;;;;;;5.53;2.42;;;15.40;99.90;;;;;;4992889;28;20034;-73
2022/07/11 04:11:40;;;;;;;4.43;2.17;;;15.40;99.90;;;;;;4975279;28;20463;-74
2022/07/11 04:14:06;;;;;;;7.00;2.45;;;15.40;99.90;;;;;;4992664;28;20077;-73
2022/07/11 04:16:32;;;;;;;5.75;2.05;;;15.40;99.90;;;;;;4992558;28;20509;-73
2022/07/11 04:18:57;;;;;;;5.47;2.60;;;15.40;99.90;;;;;;4958728;28;20045;-73
2022/07/11 04:21:23;;;;;;;4.80;2.40;;;15.40;99.90;;;;;;4972673;28;20038;-73
2022/07/11 04:23:49;;;;;;;5.15;2.17;;;15.40;99.90;;;;;;4975000;28;20038;-73
2022/07/11 04:26:15;;;;;;;4.28;2.10;;;15.50;99.90;;;;;;4992803;28;20053;-73
2022/07/11 04:28:41;;;;;;;6.32;1.77;;;15.50;99.90;;;;;;4992400;28;20468;-73
2022/07/11 04:31:07;;;;;;;3.65;1.42;;;15.50;99.90;;;;;;4974966;28;20129;-73
2022/07/11 04:33:33;;;;;;;2.80;1.33;;;15.50;99.90;;;;;;4975146;28;20129;-73
2022/07/11 04:35:59;;;;;;;3.25;1.30;;;15.50;99.90;;;;;;4974862;28;20523;-73
2022/07/11 04:38:25;;;;;;;6.70;1.38;;;15.50;99.90;;;;;;4975403;28;20046;-73
2022/07/11 04:40:51;;;;;;;3.78;1.20;;;15.60;99.90;;;;;;4958732;28;20493;-73
2022/07/11 04:43:17;;;;;;;5.10;1.40;;;15.60;99.90;;;;;;4992378;28;20105;-73
2022/07/11 04:45:43;;;;;;;4.28;1.60;;;15.60;99.90;;;;;;4993671;28;20041;-74
2022/07/11 04:48:09;;;;;;;3.58;1.42;;;15.70;99.90;;;;;;4994224;28;20042;-72
2022/07/11 04:50:35;;;;;;;3.78;1.77;;;15.70;99.90;;;;;;4991823;28;20042;-73
2022/07/11 04:53:02;;;;;;;2.65;1.50;;;15.70;99.90;;;;;;5012071;28;20045;-73
2022/07/11 04:55:28;;;;;;;4.07;1.70;;;15.80;99.90;;;;;;4994176;28;20041;-73
2022/07/11 04:57:53;;;;;;;4.18;1.70;;;15.80;99.90;;;;;;4994205;28;20049;-72
2022/07/11 05:00:20;;;;;;;2.97;1.50;;;15.80;99.90;;;;;;5012141;28;20052;-73
2022/07/11 05:02:46;;;;;;;3.10;1.55;;;15.80;99.90;;;;;;4995688;28;20502;-72
2022/07/11 05:05:12;;;;;;;3.65;2.03;;;15.80;99.90;;;;;;4998043;28;20056;-72
2022/07/11 05:07:38;;;;;;;3.90;1.85;;;15.80;99.90;;;;;;4998434;28;20125;-73
2022/07/11 05:10:05;;;;;;;4.90;1.90;;;15.90;99.90;;;;;;4997943;28;20192;-73
2022/07/11 05:12:31;;;;;;;4.85;1.88;;;15.90;99.90;;;;;;4998059;28;20598;-72
2022/07/11 05:14:58;;;;;;;4.32;1.73;;;15.90;99.90;;;;;;4997936;28;20042;-72
2022/07/11 05:17:25;;;;;;;5.78;1.90;;;16.00;99.90;;;;;;4997801;28;20050;-73
2022/07/11 05:19:51;;;;;;;4.03;1.73;;;16.00;99.90;;;;;;4995372;28;20053;-72
2022/07/11 05:22:17;;;;;;;3.80;1.77;;;15.90;99.90;;;;;;4997810;28;20041;-72
2022/07/11 05:24:43;;;;;;;2.45;1.58;;;16.00;99.90;;;;;;5015419;28;20042;-72
2022/07/11 05:27:09;;;;;;;2.78;1.48;;;16.00;99.90;;;;;;4981552;28;20038;-71
2022/07/11 05:29:34;;;;;;;3.25;1.75;;;16.00;99.90;;;;;;4997742;28;20042;-71
2022/07/11 05:32:00;;;;;;;2.30;1.48;;;16.10;99.90;;;;;;4997445;28;20051;-72
2022/07/11 05:34:26;;;;;;;2.10;1.27;;;16.10;99.90;;;;;;5015309;28;20033;-71
2022/07/11 05:36:53;;;;;;;3.28;1.20;;;16.10;99.90;;;;;;4997538;28;20045;-70
2022/07/11 05:39:19;;;;;;;2.22;1.23;;;16.10;99.90;;;;;;5015208;28;20395;-72
2022/07/11 05:41:45;;;;;;;2.13;1.15;;;16.20;99.90;;;;;;5015102;28;20038;-71
2022/07/11 05:44:10;;;;;;;1.90;1.23;;;16.20;99.90;;;;;;4996673;28;20041;-70
2022/07/11 05:46:39;;;;;;;4.75;1.05;;;16.20;99.90;;;;;;4997384;28;20045;-72
2022/07/11 05:49:08;;;;;;;2.47;0.90;;;16.20;99.90;;;;;;5014244;28;20040;-73
2022/07/11 05:51:34;;;;;;;1.70;0.68;;;16.20;99.90;;;;;;5015833;28;20440;-72
2022/07/11 05:54:00;;;;;;;3.28;0.70;;;16.30;99.90;;;;;;4997468;28;20056;-72
2022/07/11 05:56:26;;;;;;;2.25;0.77;;;16.30;99.90;;;;;;4997060;28;20042;-73
2022/07/11 05:58:52;;;;;;;1.40;0.73;;;16.30;99.90;;;;;;4997211;28;20046;-72
2022/07/11 06:01:18;;;;;;;2.08;0.80;;;16.30;99.90;;;;;;4980827;28;20131;-72
2022/07/11 06:03:44;;;;;;;1.13;0.50;;;16.40;99.90;;;;;;4980676;28;20116;-72
2022/07/11 06:06:10;;;;;;;2.05;0.60;;;16.40;99.90;;;;;;5014892;28;20048;-71
2022/07/11 06:08:43;;;;;;;1.10;0.40;;;16.40;99.90;;;;;;4997278;28;20034;-71
2022/07/11 06:11:11;;;;;;;2.58;0.70;;;16.40;99.90;;;;;;5014489;28;20037;-72
2022/07/11 06:13:37;;;;;;;3.13;0.50;;;16.40;99.90;;;;;;4980505;28;20046;-72
2022/07/11 06:16:07;;;;;;;1.70;0.75;;;16.40;99.90;;;;;;4996713;28;20527;-73
2022/07/11 06:18:37;;;;;;;1.85;0.73;;;16.40;99.90;;;;;;5014367;28;20500;-72
2022/07/11 06:21:04;;;;;;;2.08;0.60;;;16.50;99.90;;;;;;4994155;28;20101;-73
2022/07/11 06:23:30;;;;;;;2.45;0.50;;;16.50;99.90;;;;;;4997006;28;20038;-71
2022/07/11 06:25:56;;;;;;;1.52;0.85;;;16.60;99.90;;;;;;4980465;28;20034;-71
2022/07/11 06:28:22;;;;;;;2.20;0.40;;;16.60;99.90;;;;;;5014147;28;20076;-72
2022/07/11 06:30:49;;;;;;;1.60;0.50;;;16.60;99.90;;;;;;4996799;28;20515;-71
2022/07/11 06:33:18;;;;;;;4.13;0.98;;;16.70;99.90;;;;;;5014067;28;20078;-72
2022/07/11 06:35:44;;;;;;;0.85;0.30;;;16.80;99.90;;;;;;5014091;28;20126;-72
2022/07/11 06:38:11;;;;;;;1.10;0.40;;;16.90;99.90;;;;;;5013985;28;20072;-72
2022/07/11 06:40:37;;;;;;;0.38;0.22;;;17.00;99.90;;;;;;4996410;28;20061;-72
2022/07/11 06:43:02;;;;;;;2.10;0.43;;;17.10;99.90;;;;;;5013830;28;20042;-73
2022/07/11 06:45:28;;;;;;;0.82;0.30;;;17.10;99.90;;;;;;4980063;28;20034;-72
2022/07/11 06:47:54;;;;;;;1.00;0.38;;;17.20;99.90;;;;;;5013954;28;20092;-72
2022/07/11 06:50:20;;;;;;;1.25;0.43;;;17.30;99.90;;;;;;4993746;28;20042;-73
2022/07/11 06:52:47;;;;;;;2.05;0.43;;;17.40;99.90;;;;;;4996276;28;20050;-73
2022/07/11 06:55:13;;;;;;;0.80;0.40;;;17.40;99.90;;;;;;5013658;28;20046;-73
2022/07/11 06:57:39;;;;;;;0.70;0.30;;;17.50;99.90;;;;;;4995933;28;20125;-72
2022/07/11 07:00:07;;;;;;;0.70;0.35;;;17.60;99.90;;;;;;4996067;28;20156;-72
2022/07/11 07:02:32;;;;;;;0.98;0.43;;;17.60;99.90;;;;;;4995945;28;20528;-71
2022/07/11 07:04:58;;;;;;;1.23;0.50;;;17.60;99.90;;;;;;4977092;28;20093;-72
2022/07/11 07:07:25;;;;;;;2.08;0.52;;;17.60;99.90;;;;;;4993973;28;20070;-64
2022/07/11 07:09:52;;;;;;;0.88;0.30;;;17.40;99.90;;;;;;4976517;28;20042;-63
2022/07/11 07:12:18;;;;;;;1.73;0.40;;;17.40;99.90;;;;;;4976194;28;20042;-64
2022/07/11 07:14:44;;;;;;;0.90;0.30;;;17.30;99.90;;;;;;4976592;28;20042;-63
2022/07/11 07:17:10;;;;;;;0.70;0.30;;;17.40;99.90;;;;;;4993767;28;20042;-63
2022/07/11 07:19:36;;;;;;;1.85;0.32;;;17.50;99.90;;;;;;4973817;28;20056;-64
2022/07/11 07:22:02;;;;;;;0.95;0.40;;;17.60;99.90;;;;;;4976362;28;20038;-64
2022/07/11 07:24:28;;;;;;;0.70;0.40;;;17.70;99.90;;;;;;4960175;28;20113;-64
2022/07/11 07:26:54;;;;;;;2.50;0.50;;;17.70;99.90;;;;;;4975762;28;20501;-64
2022/07/11 07:29:20;;;;;;;1.00;0.40;;;17.60;99.90;;;;;;4976255;28;20034;-65
2022/07/11 07:31:46;;;;;;;1.42;0.40;;;17.50;99.90;;;;;;4993249;28;20038;-65
2022/07/11 07:34:12;;;;;;;3.05;0.57;;;17.40;99.90;;;;;;4976162;28;20048;-63
2022/07/11 07:36:38;;;;;;;1.42;0.40;;;17.30;99.90;;;;;;4975750;28;20588;-63
2022/07/11 07:39:04;;;;;;;1.83;0.77;;;17.30;99.90;;;;;;4975901;28;20038;-64
2022/07/11 07:41:30;;;;;;;0.20;0.20;;;17.30;99.90;;;;;;4992994;28;20046;-63
2022/07/11 07:43:55;;;;;;;1.38;0.20;;;17.40;99.90;;;;;;4971768;28;20097;-66
2022/07/11 07:46:21;;;;;;;2.17;0.40;;;17.50;99.90;;;;;;4975627;28;20078;-65
2022/07/11 07:48:47;;;;;;;1.63;0.32;;;17.60;99.90;;;;;;4975883;28;20034;-65
2022/07/11 07:51:13;;;;;;;0.45;0.30;;;17.60;99.90;;;;;;4973038;28;20104;-66
2022/07/11 07:53:39;;;;;;;0.50;0.20;;;17.60;99.90;;;;;;4975595;28;20042;-65
2022/07/11 07:56:05;;;;;;;0.52;0.20;;;17.60;99.90;;;;;;4992826;28;20093;-64
2022/07/11 07:58:31;;;;;;;0.70;0.20;;;17.70;99.90;;;;;;4975620;28;20096;-64
2022/07/11 08:03:41;;;;;;;0.30;0.20;;;18.70;99.90;;;;;;4981812;28;20408;-65
2022/07/11 08:06:07;;;;;;;1.63;0.50;;;18.90;99.90;;;;;;5012370;28;20045;-64
2022/07/11 08:08:33;;;;;;;0.90;0.40;;;18.80;99.90;;;;;;4994799;28;20053;-64
2022/07/11 08:11:01;;;;;;;1.08;0.32;;;18.60;99.90;;;;;;5012283;28;20054;-65
2022/07/11 08:13:28;;;;;;;1.55;0.30;;;18.50;99.90;;;;;;4994449;28;20050;-64
2022/07/11 08:15:54;;;;;;;0.93;0.20;;;18.50;99.90;;;;;;5012176;28;20046;-64
2022/07/11 08:18:20;;;;;;;0.75;0.30;;;18.80;99.90;;;;;;4994683;28;20057;-65
2022/07/11 08:20:46;;;;;;;0.90;0.20;;;19.20;99.90;;;;;;4988816;28;20042;-64
2022/07/11 08:23:12;;;;;;;0.40;0.25;;;19.60;99.90;;;;;;4964335;28;20397;-64
2022/07/11 08:25:39;;;;;;;0.20;0.20;;;19.80;99.90;;;;;;4977856;28;20078;-65
2022/07/11 08:28:05;;;;;;;4.65;0.63;;;19.70;99.90;;;;;;5013159;28;20126;-65
2022/07/11 08:30:31;;;;;;;0.20;0.20;;;19.50;99.90;;;;;;4979570;28;20382;-65
2022/07/11 08:32:57;;;;;;;0.50;0.30;;;19.20;99.90;;;;;;4995456;28;20049;-64
2022/07/11 08:35:23;;;;;;;0.55;0.10;;;19.10;99.90;;;;;;4994387;28;20104;-65
2022/07/11 08:37:49;;;;;;;0.13;0.10;;;18.90;99.90;;;;;;4992406;28;20038;-65
2022/07/11 08:40:15;;;;;;;0.28;0.10;;;18.80;99.90;;;;;;5012922;28;20380;-65
2022/07/11 08:42:44;;;;;;;0.20;0.10;;;18.70;99.90;;;;;;5012750;28;20117;-65
2022/07/11 08:45:17;;;;;;;1.33;0.22;;;18.70;99.90;;;;;;4998457;28;20069;-65
2022/07/11 08:47:44;;;;;;;0.30;0.13;;;19.00;99.90;;;;;;4993243;28;20161;-64
2022/07/11 08:50:11;;;;;;;0.20;0.10;;;19.50;99.90;;;;;;4973608;28;20042;-65
2022/07/11 08:52:38;;;;;;;1.65;0.20;;;19.70;99.90;;;;;;4975603;28;20043;-65
2022/07/11 08:55:08;;;;;;;0.60;0.10;;;19.70;99.90;;;;;;4975745;28;20046;-65
2022/07/11 08:57:35;;;;;;;;;;;19.60;99.90;;;;;;4976343;28;20362;-65
2022/07/11 09:00:03;;;;;;;0.30;0.10;;;19.70;99.90;;;;;;4993066;28;20492;-65
2022/07/11 09:02:30;;;;;;;0.20;0.10;;;19.90;99.90;;;;;;4975507;28;20121;-64
2022/07/11 09:04:55;;;;;;;1.38;0.32;;;20.10;99.90;;;;;;4992783;28;20484;-65
2022/07/11 09:07:21;;;;;;;0.20;0.10;;;20.10;99.90;;;;;;4959140;28;20078;-65
2022/07/11 09:09:47;;;;;;;0.20;0.20;;;20.00;99.90;;;;;;4975911;28;20125;-65
2022/07/11 09:12:16;;;;;;;0.70;0.20;;;19.80;99.90;;;;;;4993108;28;20635;-64
2022/07/11 09:14:49;;;;;;;0.20;0.15;;;19.60;99.90;;;;;;4975883;28;20077;-64
2022/07/11 09:17:23;;;;;;;0.10;0.10;;;19.40;99.90;;;;;;4992688;28;20114;-65
2022/07/11 09:19:51;;;;;;;0.63;0.10;;;19.30;99.90;;;;;;4973383;28;20038;-64
2022/07/11 09:25:22;;;;;;;0.25;0.15;;;19.20;99.90;;;;;;4975507;28;20050;-65
2022/07/11 09:28:07;;;;;;;2.70;0.20;;;19.10;99.90;;;;;;4959274;28;20129;-65
2022/07/11 09:30:39;;;;;;;0.20;0.17;;;19.10;99.90;;;;;;4975684;28;20046;-66
2022/07/11 09:33:09;;;;;;;0.38;0.10;;;19.10;99.90;;;;;;4975591;28;20493;-66
2022/07/11 09:35:42;;;;;;;;;;;19.10;99.90;;;;;;4975549;28;20046;-65
2022/07/11 09:38:08;;;;;;;0.20;0.10;;;19.10;99.90;;;;;;4975111;28;19972;-65
2022/07/11 09:40:36;;;;;;;0.90;0.20;;;19.00;99.90;;;;;;4975292;28;20125;-65
2022/07/11 09:43:02;;;;;;;0.30;0.20;;;19.00;99.90;;;;;;5001709;28;20508;-65
2022/07/11 09:45:31;;;;;;;0.40;0.20;;;19.00;99.90;;;;;;4977675;28;20096;-65
2022/07/11 09:47:59;;;;;;;0.70;0.20;;;19.00;99.90;;;;;;4978159;28;20053;-65
2022/07/11 09:50:30;;;;;;;1.10;0.20;;;19.00;99.90;;;;;;4980089;28;20384;-65
2022/07/11 09:53:02;;;;;;;0.73;0.40;;;19.00;99.90;;;;;;4997926;28;20076;-65
2022/07/11 09:55:29;;;;;;;0.90;0.30;;;19.00;99.90;;;;;;4998257;28;20100;-65
2022/07/11 09:57:55;;;;;;;0.63;0.30;;;19.00;99.90;;;;;;4998351;28;20396;-65
2022/07/11 10:00:21;;;;;;;3.05;0.80;;;19.00;99.90;;;;;;5015647;28;20393;-65
2022/07/11 10:02:47;;;;;;;0.55;0.40;;;19.00;99.90;;;;;;4997681;28;20072;-64
2022/07/11 10:05:12;;;;;;;0.80;0.30;;;19.00;99.90;;;;;;4997852;28;20049;-64
2022/07/11 10:07:38;;;;;;;0.93;0.32;;;19.00;99.90;;;;;;4997708;28;20044;-65
2022/07/11 10:10:06;;;;;;;0.60;0.30;;;19.10;99.90;;;;;;4997862;28;20081;-65
2022/07/11 10:12:33;;;;;;;0.82;0.40;;;19.20;99.90;;;;;;4997157;28;20085;-65
2022/07/11 10:15:06;;;;;;;1.10;0.30;;;19.40;99.90;;;;;;4996465;28;20053;-65
2022/07/11 10:18:07;;;;;;;0.73;0.20;;;19.50;99.90;;;;;;4996764;28;20052;-65
2022/07/11 10:21:00;;;;;;;0.93;0.30;;;19.50;99.90;;;;;;4994230;28;20049;-65
2022/07/11 10:23:35;;;;;;;0.65;0.25;;;19.50;99.90;;;;;;5014146;28;20096;-64
2022/07/11 10:26:30;;;;;;;0.50;0.30;;;19.50;99.90;;;;;;4996791;28;20391;-65
2022/07/11 10:29:16;;;;;;;0.43;0.30;;;19.50;99.90;;;;;;4970102;28;20290;-65
2022/07/11 10:31:42;;;;;;;0.22;0.20;;;19.50;99.90;;;;;;4996725;28;20403;-65
2022/07/11 10:34:18;;;;;;;0.68;0.28;;;19.50;99.90;;;;;;4996461;28;20042;-65
2022/07/11 10:36:45;;;;;;;0.93;0.30;;;19.60;99.90;;;;;;4976150;28;20050;-65
2022/07/11 10:39:24;;;;;;;0.90;0.20;;;19.70;99.90;;;;;;4977964;28;20046;-65
2022/07/11 10:41:51;;;;;;;0.10;0.10;;;19.80;99.90;;;;;;4961641;28;20042;-65
2022/07/11 10:44:18;;;;;;;0.40;0.20;;;20.00;99.90;;;;;;4983900;28;20160;-65
2022/07/11 10:46:44;;;;;;;0.68;0.30;;;20.10;99.90;;;;;;4996437;28;20069;-65
2022/07/11 10:49:13;;;;;;;0.55;0.30;;;20.10;99.90;;;;;;5013238;28;20048;-65
2022/07/11 10:51:52;;;;;;;0.30;0.17;;;20.20;99.90;;;;;;4978810;28;20045;-65
2022/07/11 10:54:21;;;;;;;1.17;0.20;;;20.30;99.90;;;;;;4995959;28;20507;-66
2022/07/11 10:57:04;;;;;;;1.77;0.30;;;20.50;99.90;;;;;;4979837;28;20500;-65
2022/07/11 10:59:30;;;;;;;0.38;0.28;;;20.50;99.90;;;;;;4995389;28;20037;-66
2022/07/11 11:02:23;;;;;;;0.50;0.20;;;20.50;99.90;;;;;;4995394;28;20042;-65
2022/07/11 11:04:50;;;;;;;0.40;0.25;;;20.50;99.90;;;;;;4958065;28;20492;-64
2022/07/11 11:07:35;;;;;;;0.55;0.30;;;20.40;99.90;;;;;;4974427;28;20492;-64
2022/07/11 11:10:07;;;;;;;0.95;0.30;;;20.30;99.90;;;;;;4966939;28;20129;-64
2022/07/11 11:13:04;;;;;;;0.43;0.20;;;20.20;99.90;;;;;;4957027;28;20039;-64
2022/07/11 11:15:52;;;;;;;0.65;0.20;;;20.10;99.90;;;;;;4941058;28;20163;-64
2022/07/11 11:18:41;;;;;;;0.75;0.20;;;20.00;99.90;;;;;;4957048;28;20047;-64
2022/07/11 11:21:07;;;;;;;1.98;0.52;;;20.00;99.90;;;;;;4954435;28;20049;-64
2022/07/11 11:23:33;;;;;;;1.48;0.20;;;19.90;99.90;;;;;;4956937;28;20129;-64
2022/07/11 11:26:13;;;;;;;1.45;0.20;;;19.90;99.90;;;;;;4957057;28;20497;-65
2022/07/11 11:28:59;;;;;;;0.32;0.20;;;19.90;99.90;;;;;;4940774;28;20519;-64
2022/07/11 11:31:29;;;;;;;0.32;0.13;;;19.90;99.90;;;;;;4940976;28;20050;-64
2022/07/11 11:33:57;;;;;;;0.45;0.20;;;20.00;99.90;;;;;;4956776;28;20046;-64
2022/07/11 11:36:24;;;;;;;1.63;0.30;;;20.10;99.90;;;;;;4956619;28;20054;-64
2022/07/11 11:38:52;;;;;;;0.50;0.20;;;20.30;99.90;;;;;;4973936;28;20058;-64
2022/07/11 11:41:29;;;;;;;0.28;0.20;;;20.30;99.90;;;;;;4973705;28;20104;-63
2022/07/11 11:43:57;;;;;;;0.50;0.20;;;20.40;99.90;;;;;;4977880;28;20041;-64
2022/07/11 11:46:31;;;;;;;0.70;0.20;;;20.40;99.90;;;;;;4975957;28;20046;-64
2022/07/11 11:49:01;;;;;;;2.30;0.30;;;20.40;99.90;;;;;;4975643;28;20562;-64
2022/07/11 11:51:28;;;;;;;0.60;0.20;;;20.40;99.90;;;;;;4990790;28;20053;-65
2022/07/11 11:53:57;;;;;;;0.65;0.28;;;20.50;99.90;;;;;;4975625;28;20050;-64
2022/07/11 11:56:34;;;;;;;0.52;0.30;;;20.70;99.90;;;;;;4959873;28;20077;-65
2022/07/11 11:59:07;;;;;;;0.40;0.25;;;20.70;99.90;;;;;;4975697;28;20073;-65
2022/07/11 12:01:34;;;;;;;0.85;0.50;;;20.70;99.90;;;;;;4975438;28;20543;-64
2022/07/11 12:04:02;;;;;;;1.60;0.20;;;20.70;99.90;;;;;;4975402;28;20054;-64
2022/07/11 12:06:32;;;;;;;0.90;0.30;;;20.80;99.90;;;;;;4959075;28;20112;-64
2022/07/11 12:09:11;;;;;;;3.15;0.40;;;20.80;99.90;;;;;;4975625;28;20046;-65
2022/07/11 12:11:42;;;;;;;0.60;0.30;;;20.70;99.90;;;;;;4959337;28;20150;-64
2022/07/11 12:14:12;;;;;;;0.55;0.38;;;20.60;99.90;;;;;;4975200;28;20292;-65
2022/07/11 12:16:44;;;;;;;1.25;0.30;;;20.50;99.90;;;;;;4993175;28;20038;-64
2022/07/11 12:19:18;;;;;;;2.80;0.70;;;20.40;99.90;;;;;;4968932;28;20104;-64
2022/07/11 12:21:49;;;;;;;1.05;0.30;;;20.40;99.90;;;;;;4974357;28;20038;-64
2022/07/11 12:24:21;;;;;;;1.92;0.65;;;20.50;99.90;;;;;;4964818;28;20074;-64
2022/07/11 12:26:47;;;;;;;0.70;0.38;;;20.50;99.90;;;;;;4955585;28;20047;-64
2022/07/11 12:29:19;;;;;;;1.58;0.50;;;20.50;99.90;;;;;;4968987;28;20050;-64
2022/07/11 12:31:49;;;;;;;0.95;0.60;;;20.50;99.90;;;;;;4992401;28;20125;-64
2022/07/11 12:34:24;;;;;;;1.98;0.50;;;20.40;99.90;;;;;;4972151;28;20042;-64
2022/07/11 12:37:01;;;;;;;0.63;0.40;;;20.40;99.90;;;;;;4992869;28;20114;-64
2022/07/11 12:39:29;;;;;;;0.75;0.40;;;20.40;99.90;;;;;;4992803;28;20042;-65
2022/07/11 12:41:57;;;;;;;1.00;0.60;;;20.40;99.90;;;;;;4975095;28;20380;-64
2022/07/11 12:47:23;;;;;;;1.77;0.73;;;20.10;99.90;;;;;;4973335;28;20045;-64
2022/07/11 12:49:50;;;;;;;1.55;0.40;;;20.00;99.90;;;;;;4972511;28;20048;-64
2022/07/11 12:52:17;;;;;;;2.22;0.50;;;19.90;99.90;;;;;;4974727;28;20042;-64
2022/07/11 12:54:43;;;;;;;2.10;0.40;;;19.90;99.90;;;;;;4992345;28;20043;-65
2022/07/11 12:57:13;;;;;;;1.65;0.50;;;19.90;99.90;;;;;;4992041;28;20515;-64
2022/07/11 12:59:40;;;;;;;1.00;0.60;;;20.00;99.90;;;;;;4974468;28;20038;-64
2022/07/11 13:02:08;;;;;;;0.75;0.30;;;20.10;99.90;;;;;;4958407;28;20077;-64
2022/07/11 13:04:45;;;;;;;2.67;0.50;;;20.00;99.90;;;;;;4991714;28;20061;-64